Louisiana, MO

1:52 PM CST on January 27, 2015 (GMT -0600)
N0YWD | Change Station
CLOSE
Current Station
Personal Weather Station
Location: Louisiana, MO
Elevation: 525 ft
Nearby Weather Stations

Elev 525 ft 39.44 °N, 91.06 °W | Updated 2 minutes ago

Partly Cloudy
Partly Cloudy
43.7 °F
Feels Like 44 °F
N
2.0
Wind Variable Wind from WNW
Gusts 7.0 mph

Today
High -- | Low -- °F
--% Chance of Precip.
Yesterday
High -- | Low -- °F
Precip. -- in
7:15 AM 5:18 PM
First Quarter, 57% visible
Pressure 30.16 in
Visibility 10.0 miles
Clouds Mostly Cloudy 2900 ft
Windchill 44 °F
Dew Point 33 °F
Humidity 66%
Rainfall 0.00 in
Snow Depth Not available.
UV 2 out of 12
Pollen .10 out of 12
Air Quality Not available.
Flu Activity Not available.
METAR KPPQ 271935Z AUTO 35006KT 10SM BKN029 06/00 A3016 RMK AO2 T00621004

More Conditions Fewer Conditions

Pressure 30.16 in
Visibility 10.0 miles
Clouds Mostly Cloudy 2900 ft
Windchill 44 °F
Dew Point 33 °F
Humidity 66%
Rainfall 0.00 in
Snow Depth Not available.
UV 2 out of 12
Pollen .10 out of 12
Air Quality Not available.
Flu Activity Not available.
METAR KPPQ 271935Z AUTO 35006KT 10SM BKN029 06/00 A3016 RMK AO2 T00621004

More Conditions Fewer Conditions

10-Day Weather Forecast

Almanac

Astronomy

Jan. 27, 2015 Rise Set
Actual Time
Civil Twilight
Nautical Twilight
Astronomical Twilight
Moon
Length of Visible Light
Length of Day
Tomorrow will be .
, % of the Moon is Illuminated

Today's Extremes

State Highs State Lows

Community

WunderPhotos

Upload Photos

1,790,837 photos uploaded!

WunderBlogs® & News

Nearby

Air Quality

  Air Quality AQ Index Pollutant
Not available.

Snow Depth

Station Depth Elevation

Earthquake Activity

City Distance Mag. Time & Date
Minimum magnitude displayed is 2.5.

Coastal Water Temperatures

Place Temperature

Nearby Weather Stations